Time;durP1;ratioP1;P1;durP2;ratioP2;P2;SDS_P1;SDS_P2;PMS_P1;PMS_P2;Temp;Humidity;BMP_temperature;BMP_pressure;BME280_temperature;BME280_humidity;BME280_pressure;Samples;Min_cycle;Max_cycle;Signal;HPM_P1;HPM_P2
2021/04/08 00:00:36;;;;;;;32.22;24.48;;;;;;;6.87;63.15;97539.31;5012008;28;20057;-67
2021/04/08 00:03:01;;;;;;;33.33;24.77;;;;;;;6.82;63.03;97532.78;5012018;28;20490;-65
2021/04/08 00:05:27;;;;;;;33.70;24.23;;;;;;;6.83;63.14;97537.13;5011618;28;20061;-67
2021/04/08 00:07:52;;;;;;;30.92;22.70;;;;;;;6.57;63.27;97490.91;5011467;28;20033;-68
2021/04/08 00:10:18;;;;;;;30.42;22.40;;;;;;;6.32;63.43;97444.75;5011643;28;20057;-67
2021/04/08 00:12:43;;;;;;;29.50;22.85;;;;;;;6.84;63.44;97534.28;5011993;28;20034;-68
2021/04/08 00:15:11;;;;;;;31.52;23.48;;;;;;;6.83;63.48;97531.78;5011735;28;20504;-67
2021/04/08 00:17:37;;;;;;;34.25;24.35;;;;;;;6.83;63.34;97529.13;5011530;28;20121;-64
2021/04/08 00:20:29;;;;;;;32.03;23.60;;;;;;;6.89;63.55;97537.34;5011712;28;20482;-67
2021/04/08 00:22:54;;;;;;;26.80;20.33;;;;;;;6.70;63.30;97513.59;5010982;28;20033;-68
2021/04/08 00:25:20;;;;;;;24.48;18.50;;;;;;;6.78;63.05;97534.09;5011216;28;20092;-68
2021/04/08 00:27:45;;;;;;;24.75;18.45;;;;;;;6.75;62.91;97540.56;5011519;28;20046;-68
2021/04/08 00:30:12;;;;;;;21.00;15.98;;;;;;;6.72;62.96;97525.72;5011362;28;20045;-59
2021/04/08 00:32:38;;;;;;;21.02;15.15;;;;;;;6.72;63.06;97517.75;5011132;28;20095;-68
2021/04/08 00:35:05;;;;;;;21.10;15.48;;;;;;;6.62;63.16;97511.72;5011024;28;20050;-67
2021/04/08 00:37:30;;;;;;;21.58;14.95;;;;;;;6.57;63.27;97500.72;5009712;28;20448;-68
2021/04/08 00:39:56;;;;;;;22.63;16.27;;;;;;;6.50;63.32;97497.84;5010973;28;20030;-69
2021/04/08 00:42:22;;;;;;;21.45;15.63;;;;;;;6.63;63.42;97531.16;5022526;28;20037;-67
2021/04/08 00:44:47;;;;;;;19.23;14.48;;;;;;;6.63;63.37;97533.81;5017015;28;20528;-62
2021/04/08 00:47:13;;;;;;;19.92;14.85;;;;;;;6.53;63.67;97512.66;5010807;28;20038;-68
2021/04/08 00:49:38;;;;;;;20.58;14.60;;;;;;;6.61;63.47;97533.97;5011408;28;20018;-68
2021/04/08 00:52:04;;;;;;;20.15;14.90;;;;;;;6.62;63.91;97517.03;5010972;28;20034;-69
2021/04/08 00:54:30;;;;;;;19.38;14.52;;;;;;;6.63;64.05;97515.19;5011051;28;20520;-68
2021/04/08 00:56:55;;;;;;;20.15;14.52;;;;;;;6.65;64.25;97522.03;5010834;28;20494;-67
2021/04/08 00:59:21;;;;;;;21.55;15.35;;;;;;;6.65;64.08;97503.41;5010838;28;20044;-68
2021/04/08 01:01:47;;;;;;;19.20;14.07;;;;;;;6.68;63.60;97515.59;5010654;28;20037;-67
2021/04/08 01:04:12;;;;;;;18.45;13.70;;;;;;;6.68;63.74;97518.25;5010887;28;20070;-68
2021/04/08 01:06:38;;;;;;;18.25;13.48;;;;;;;6.59;63.63;97514.69;5010975;28;20391;-67
2021/04/08 01:09:06;;;;;;;20.00;14.45;;;;;;;6.67;64.07;97511.25;5010827;28;20034;-68
2021/04/08 01:11:32;;;;;;;19.75;15.23;;;;;;;6.64;63.36;97512.41;4994562;28;20026;-68
2021/04/08 01:13:57;;;;;;;21.23;15.40;;;;;;;6.61;63.64;97508.22;5010447;28;20026;-67
2021/04/08 01:16:35;;;;;;;22.45;16.70;;;;;;;6.69;64.45;97511.94;5010392;28;20030;-68
2021/04/08 01:19:18;;;;;;;20.83;16.08;;;;;;;6.74;63.86;97512.28;5010505;28;20034;-68
2021/04/08 01:22:11;;;;;;;22.50;17.02;;;;;;;6.69;63.64;97515.41;4995881;28;20080;-66
2021/04/08 01:24:39;;;;;;;24.40;17.48;;;;;;;6.60;63.79;97508.38;5010654;28;20038;-68
2021/04/08 01:27:28;;;;;;;24.73;17.35;;;;;;;6.57;63.56;97498.88;5010579;28;20053;-66
2021/04/08 01:30:02;;;;;;;22.60;16.80;;;;;;;6.12;64.44;97423.66;4997290;28;20568;-68
2021/04/08 01:32:31;;;;;;;26.25;18.95;;;;;;;6.47;63.98;97506.13;5009860;28;20184;-68
2021/04/08 01:34:59;;;;;;;22.92;16.45;;;;;;;6.49;64.22;97503.31;5010779;28;20045;-68
2021/04/08 01:37:42;;;;;;;21.95;16.17;;;;;;;6.42;64.17;97490.66;5009045;28;20425;-68
2021/04/08 01:40:09;;;;;;;20.92;16.38;;;;;;;6.41;63.62;97481.00;5002626;28;20436;-66
2021/04/08 01:42:37;;;;;;;21.67;16.98;;;;;;;6.41;64.04;97478.34;5010083;28;20549;-63
2021/04/08 01:45:16;;;;;;;23.58;17.52;;;;;;;6.43;64.60;97488.84;5010332;28;20041;-67
2021/04/08 01:47:44;;;;;;;20.55;16.45;;;;;;;6.42;64.11;97487.97;5010551;28;20136;-63
2021/04/08 01:50:11;;;;;;;26.75;17.27;;;;;;;6.42;64.12;97476.53;5010557;28;20029;-67
2021/04/08 01:52:40;;;;;;;23.35;17.45;;;;;;;6.42;64.58;97487.16;5009990;28;20401;-68
2021/04/08 01:55:07;;;;;;;22.95;17.23;;;;;;;6.28;64.09;97457.50;5010641;28;20034;-65
2021/04/08 01:57:34;;;;;;;22.33;16.63;;;;;;;6.05;63.91;97417.31;4994283;28;20490;-68
2021/04/08 02:00:01;;;;;;;23.73;17.15;;;;;;;6.35;63.74;97462.19;5009899;28;20022;-67
2021/04/08 02:02:27;;;;;;;23.48;17.20;;;;;;;6.39;64.09;97467.03;5009560;28;20038;-66
2021/04/08 02:04:55;;;;;;;22.50;17.08;;;;;;;6.46;64.16;97465.41;5010393;28;20029;-66
2021/04/08 02:07:21;;;;;;;24.00;18.02;;;;;;;6.42;63.52;97465.91;5010148;28;20068;-61
2021/04/08 02:09:49;;;;;;;24.27;17.80;;;;;;;6.46;63.97;97462.75;5009990;28;20034;-66
2021/04/08 02:12:16;;;;;;;26.50;18.55;;;;;;;6.37;63.91;97431.81;5010110;28;20030;-66
2021/04/08 02:14:42;;;;;;;26.52;18.65;;;;;;;6.44;63.95;97453.28;5005612;28;20418;-65
2021/04/08 02:17:10;;;;;;;25.20;17.95;;;;;;;6.49;64.14;97460.78;5006859;28;20532;-66
2021/04/08 02:19:36;;;;;;;24.08;18.08;;;;;;;6.50;63.78;97459.78;5010253;28;20030;-65
2021/04/08 02:22:02;;;;;;;25.20;19.20;;;;;;;6.47;63.92;97464.41;5009887;28;20034;-64
2021/04/08 02:24:30;;;;;;;25.67;18.73;;;;;;;6.49;63.96;97458.13;5009842;28;20038;-65
2021/04/08 02:26:56;;;;;;;25.98;18.77;;;;;;;6.46;63.66;97461.94;5009767;28;20076;-68
2021/04/08 02:29:22;;;;;;;26.42;19.55;;;;;;;6.43;63.95;97460.41;5009738;28;20042;-67
2021/04/08 02:31:50;;;;;;;27.30;19.73;;;;;;;6.33;64.18;97451.72;5009729;28;20030;-67
2021/04/08 02:34:15;;;;;;;29.73;19.05;;;;;;;5.97;64.14;97378.22;5010097;28;20068;-69
2021/04/08 02:36:41;;;;;;;26.77;19.20;;;;;;;6.15;64.19;97401.28;5012425;28;20049;-64
2021/04/08 02:39:08;;;;;;;27.60;19.83;;;;;;;6.44;64.51;97447.97;5013323;28;20049;-66
2021/04/08 02:41:41;;;;;;;27.40;19.42;;;;;;;6.44;64.41;97446.13;5013414;28;20117;-68
2021/04/08 02:44:07;;;;;;;28.10;19.27;;;;;;;6.49;63.42;97443.00;5013525;28;20046;-67
2021/04/08 02:46:32;;;;;;;29.10;19.10;;;;;;;6.45;64.06;97460.28;5013131;28;20488;-68
2021/04/08 02:48:58;;;;;;;30.55;20.15;;;;;;;6.29;64.25;97431.75;5013351;28;20448;-68
2021/04/08 02:51:53;;;;;;;30.65;20.85;;;;;;;6.44;64.74;97456.75;5013143;28;20025;-68
2021/04/08 02:54:35;;;;;;;29.70;20.30;;;;;;;6.47;64.94;97440.50;5012452;28;20044;-69
2021/04/08 02:57:02;;;;;;;26.13;18.50;;;;;;;6.44;63.99;97440.81;5013014;28;20092;-69
2021/04/08 02:59:37;;;;;;;27.55;19.23;;;;;;;6.45;65.00;97439.81;5011748;28;20048;-68
2021/04/08 03:02:06;;;;;;;26.15;18.00;;;;;;;6.43;64.23;97431.19;5013008;28;20490;-67
2021/04/08 03:04:36;;;;;;;27.20;18.13;;;;;;;6.42;64.35;97441.97;5012862;28;20048;-68
2021/04/08 03:07:03;;;;;;;26.08;16.90;;;;;;;6.39;64.24;97435.13;5013159;28;20107;-68
2021/04/08 03:09:32;;;;;;;24.05;16.27;;;;;;;6.39;64.44;97428.97;5012562;28;20037;-66
2021/04/08 03:12:02;;;;;;;24.73;17.15;;;;;;;6.29;64.79;97413.97;5012391;28;20454;-67
2021/04/08 03:14:29;;;;;;;27.90;17.67;;;;;;;6.32;64.42;97431.44;5011207;28;20088;-65
2021/04/08 03:16:57;;;;;;;28.40;18.15;;;;;;;6.34;64.16;97425.97;5012683;28;20041;-68
2021/04/08 03:19:24;;;;;;;27.95;19.02;;;;;;;6.35;64.39;97432.94;5012342;28;20030;-67
2021/04/08 03:21:50;;;;;;;28.85;19.08;;;;;;;6.36;64.84;97432.81;5012957;28;20041;-69
2021/04/08 03:24:19;;;;;;;33.40;20.40;;;;;;;6.39;64.46;97421.84;5012515;28;20040;-66
2021/04/08 03:26:45;;;;;;;28.40;19.08;;;;;;;6.35;64.77;97411.69;5012410;28;20044;-68
2021/04/08 03:29:13;;;;;;;30.02;19.35;;;;;;;6.43;65.36;97409.09;5011987;28;20046;-62
2021/04/08 03:31:41;;;;;;;28.25;18.50;;;;;;;6.36;64.96;97400.06;5012874;28;20026;-68
2021/04/08 03:34:08;;;;;;;29.98;20.52;;;;;;;6.46;64.64;97406.94;5012633;28;20132;-68
2021/04/08 03:36:34;;;;;;;29.42;19.40;;;;;;;6.36;64.61;97387.63;5010612;28;20494;-67
2021/04/08 03:39:00;;;;;;;31.25;20.08;;;;;;;6.49;64.99;97418.25;5011432;28;20092;-68
2021/04/08 03:41:27;;;;;;;32.88;20.02;;;;;;;6.44;64.58;97390.31;5012200;28;20038;-67
2021/04/08 03:43:53;;;;;;;31.50;19.63;;;;;;;6.53;65.23;97401.81;5010978;28;20467;-69
2021/04/08 03:46:19;;;;;;;29.50;19.25;;;;;;;6.54;64.78;97392.03;5010180;28;20054;-69
2021/04/08 03:48:46;;;;;;;32.65;20.75;;;;;;;6.60;64.93;97396.72;5012017;28;20417;-66
2021/04/08 03:51:13;;;;;;;34.42;20.73;;;;;;;6.61;64.93;97395.72;5012054;28;20425;-66
2021/04/08 03:53:40;;;;;;;34.88;20.50;;;;;;;6.62;64.94;97405.38;5012123;28;20030;-69
2021/04/08 03:56:07;;;;;;;33.25;20.92;;;;;;;6.63;65.05;97401.72;5011660;28;20462;-69
2021/04/08 03:58:33;;;;;;;34.92;20.27;;;;;;;6.50;65.07;97380.88;5011687;28;20141;-69
2021/04/08 04:01:01;;;;;;;31.85;19.65;;;;;;;6.60;65.14;97404.69;5012172;28;20025;-66
2021/04/08 04:03:27;;;;;;;33.67;19.48;;;;;;;6.51;65.50;97390.53;5011637;28;20065;-68
2021/04/08 04:05:53;;;;;;;33.22;19.60;;;;;;;6.38;65.35;97368.84;5011600;28;20040;-69
2021/04/08 04:08:18;;;;;;;30.50;18.08;;;;;;;6.50;65.95;97398.63;5011447;28;20030;-67
2021/04/08 04:10:45;;;;;;;31.35;18.08;;;;;;;6.49;65.62;97407.59;5012078;28;20029;-69
2021/04/08 04:13:12;;;;;;;29.30;18.00;;;;;;;6.47;66.09;97405.94;5012015;28;20037;-69
2021/04/08 04:15:39;;;;;;;24.67;14.13;;;;;;;6.46;66.25;97412.25;5011829;28;20032;-69
2021/04/08 04:18:08;;;;;;;20.15;12.27;;;;;;;6.37;66.77;97402.56;5010316;28;20038;-68
2021/04/08 04:20:37;;;;;;;19.83;11.60;;;;;;;6.34;66.71;97407.34;5011425;28;20030;-69
2021/04/08 04:23:04;;;;;;;15.10;9.38;;;;;;;6.38;65.63;97411.38;5011129;28;20037;-69
2021/04/08 04:25:30;;;;;;;15.20;9.02;;;;;;;6.26;66.45;97405.47;5011163;28;20413;-68
2021/04/08 04:27:56;;;;;;;11.23;6.68;;;;;;;6.17;66.29;97402.78;5010654;28;20512;-68
2021/04/08 04:30:22;;;;;;;8.60;5.57;;;;;;;6.00;66.22;97382.38;5009711;28;20033;-66
2021/04/08 04:32:48;;;;;;;10.05;5.97;;;;;;;6.08;66.35;97406.38;5011351;28;20142;-69
2021/04/08 04:35:16;;;;;;;8.48;6.18;;;;;;;6.04;66.56;97397.06;5010970;28;20208;-68
2021/04/08 04:37:42;;;;;;;10.52;6.95;;;;;;;6.05;66.66;97397.88;5009971;28;20042;-63
2021/04/08 04:40:08;;;;;;;11.73;7.57;;;;;;;5.91;66.96;97380.66;5011019;28;20033;-69
2021/04/08 04:42:34;;;;;;;9.65;6.28;;;;;;;6.06;66.79;97386.25;5010862;28;20079;-69
2021/04/08 04:45:00;;;;;;;12.13;7.68;;;;;;;5.98;66.12;97379.03;5011273;28;20085;-68
2021/04/08 04:47:26;;;;;;;12.50;7.80;;;;;;;5.67;67.28;97323.72;5010775;28;20038;-68
2021/04/08 04:49:51;;;;;;;11.57;7.10;;;;;;;5.93;66.76;97357.41;5010964;28;20029;-65
2021/04/08 04:52:17;;;;;;;10.73;6.97;;;;;;;6.14;66.27;97386.31;5010733;28;20026;-69
2021/04/08 04:54:43;;;;;;;10.57;6.97;;;;;;;5.87;66.45;97351.75;5011069;28;20032;-67
2021/04/08 04:57:09;;;;;;;8.27;5.97;;;;;;;6.04;66.93;97399.72;5010133;28;20041;-67
2021/04/08 04:59:34;;;;;;;10.77;6.60;;;;;;;5.67;66.70;97323.72;5010682;28;20045;-67
2021/04/08 05:02:00;;;;;;;10.18;6.93;;;;;;;6.04;66.96;97386.44;5010768;28;20160;-65
2021/04/08 05:04:25;;;;;;;9.43;5.97;;;;;;;5.96;66.60;97370.38;5010463;28;20037;-67
2021/04/08 05:06:51;;;;;;;9.82;5.78;;;;;;;5.93;67.13;97355.63;5010627;28;20030;-67
2021/04/08 05:09:16;;;;;;;9.20;6.03;;;;;;;6.08;66.67;97368.34;5010457;28;20085;-66
2021/04/08 05:11:41;;;;;;;7.22;5.15;;;;;;;5.98;67.11;97369.25;5010431;28;20033;-65
2021/04/08 05:14:07;;;;;;;6.20;4.60;;;;;;;6.00;66.70;97369.09;5009287;28;20025;-67
2021/04/08 05:16:32;;;;;;;7.00;4.25;;;;;;;6.00;66.27;97363.78;5010347;28;20041;-66
2021/04/08 05:18:58;;;;;;;5.38;4.07;;;;;;;5.93;66.40;97365.38;5010193;28;20049;-66
2021/04/08 05:21:23;;;;;;;6.40;3.85;;;;;;;5.87;66.04;97362.38;5010360;28;20033;-66
2021/04/08 05:23:49;;;;;;;5.03;3.65;;;;;;;5.86;66.41;97365.16;5010565;28;20548;-67
2021/04/08 05:26:15;;;;;;;5.18;3.65;;;;;;;5.79;66.37;97356.16;5009994;28;20076;-61
2021/04/08 05:28:40;;;;;;;5.20;3.85;;;;;;;5.75;66.89;97350.31;5011012;28;20050;-65
2021/04/08 05:31:06;;;;;;;6.65;4.05;;;;;;;5.64;66.54;97334.66;5009752;28;20457;-64
2021/04/08 05:33:31;;;;;;;8.55;4.35;;;;;;;5.76;66.85;97359.94;5010497;28;20501;-66
2021/04/08 05:35:57;;;;;;;4.95;3.60;;;;;;;5.76;66.67;97359.94;5009836;28;20398;-68
2021/04/08 05:38:23;;;;;;;4.70;3.95;;;;;;;5.60;66.69;97342.91;5008075;28;20054;-66
2021/04/08 05:40:48;;;;;;;4.75;3.75;;;;;;;5.62;66.17;97363.97;5010367;28;20030;-67
2021/04/08 05:43:15;;;;;;;5.75;3.97;;;;;;;5.57;66.00;97369.78;5007360;28;20502;-66
2021/04/08 05:45:40;;;;;;;6.32;3.53;;;;;;;5.51;66.63;97373.00;5010342;28;20037;-66
2021/04/08 05:48:06;;;;;;;4.72;3.60;;;;;;;5.44;66.87;97380.78;5009643;28;20034;-64
2021/04/08 05:50:32;;;;;;;6.15;3.85;;;;;;;5.09;66.35;97332.00;5009787;28;20745;-66
2021/04/08 05:52:57;;;;;;;6.00;4.20;;;;;;;5.21;66.41;97366.28;5010175;28;20045;-65
2021/04/08 05:55:22;;;;;;;6.97;5.30;;;;;;;5.26;66.60;97386.06;5009845;28;20045;-64
2021/04/08 05:57:48;;;;;;;7.13;4.70;;;;;;;5.19;67.43;97390.31;5009358;28;20044;-67
2021/04/08 06:00:14;;;;;;;6.32;4.47;;;;;;;5.13;67.00;97383.78;5009551;28;20159;-64
2021/04/08 06:02:39;;;;;;;6.25;4.28;;;;;;;5.03;67.29;97375.88;5009990;28;20140;-65
2021/04/08 06:05:06;;;;;;;7.50;4.38;;;;;;;5.02;67.18;97384.00;5009689;28;20128;-63
2021/04/08 06:07:32;;;;;;;8.15;4.15;;;;;;;4.93;67.13;97379.56;5010056;28;20034;-68
2021/04/08 06:09:58;;;;;;;6.18;4.10;;;;;;;4.90;67.18;97375.41;5013014;28;20037;-66
2021/04/08 06:12:24;;;;;;;5.50;3.80;;;;;;;4.85;67.00;97383.78;5013570;28;20666;-64
2021/04/08 06:14:50;;;;;;;6.72;4.30;;;;;;;4.84;67.64;97378.66;5013702;28;20038;-64
2021/04/08 06:17:16;;;;;;;5.70;4.25;;;;;;;4.92;67.64;97392.00;5013631;28;20092;-62
2021/04/08 06:19:43;;;;;;;7.10;3.80;;;;;;;4.84;67.48;97365.41;5013715;28;20022;-67
2021/04/08 06:22:09;;;;;;;6.18;3.72;;;;;;;4.97;67.53;97387.09;5013641;28;20540;-67
2021/04/08 06:24:35;;;;;;;5.18;3.63;;;;;;;4.74;67.34;97355.66;5013340;28;20042;-69
2021/04/08 06:27:01;;;;;;;5.78;4.07;;;;;;;4.94;67.51;97403.28;5013600;28;20516;-67
2021/04/08 06:29:26;;;;;;;10.80;4.68;;;;;;;4.92;67.50;97409.72;5011666;28;20038;-69
2021/04/08 06:31:52;;;;;;;8.32;4.65;;;;;;;4.84;67.64;97383.97;5011502;28;20042;-66
2021/04/08 06:34:17;;;;;;;7.63;4.80;;;;;;;4.95;67.21;97401.50;5012360;28;20049;-66
2021/04/08 06:36:43;;;;;;;8.27;5.88;;;;;;;4.97;67.25;97403.00;5011049;28;20037;-67
2021/04/08 06:39:08;;;;;;;7.82;5.20;;;;;;;4.95;67.79;97394.34;5010570;28;20095;-68
2021/04/08 06:41:38;;;;;;;10.60;5.30;;;;;;;5.02;67.68;97413.16;5011476;28;20029;-66
2021/04/08 06:44:07;;;;;;;7.68;5.03;;;;;;;5.01;68.14;97414.16;5006700;28;20025;-68
2021/04/08 06:46:40;;;;;;;6.18;4.43;;;;;;;5.00;67.32;97413.31;5011872;28;20038;-66
2021/04/08 06:49:19;;;;;;;6.63;4.82;;;;;;;5.00;67.11;97423.09;5012252;28;20068;-68
2021/04/08 06:51:48;;;;;;;8.50;4.35;;;;;;;4.89;67.36;97442.69;5012992;28;20037;-67
2021/04/08 06:54:15;;;;;;;6.07;4.00;;;;;;;4.81;67.00;97434.59;5012740;28;20060;-64
2021/04/08 06:56:42;;;;;;;7.53;4.00;;;;;;;4.59;67.50;97404.88;5012296;28;20046;-67
2021/04/08 06:59:10;;;;;;;4.97;2.80;;;;;;;4.69;67.39;97442.75;5012389;28;20162;-68
2021/04/08 07:01:37;;;;;;;7.28;2.90;;;;;;;4.64;67.74;97452.97;5013011;28;20126;-68
2021/04/08 07:04:05;;;;;;;4.35;2.53;;;;;;;4.59;67.88;97453.38;5012823;28;20112;-66
2021/04/08 07:06:31;;;;;;;4.53;2.17;;;;;;;4.58;67.74;97456.16;5009891;28;20097;-66
2021/04/08 07:08:57;;;;;;;3.38;2.03;;;;;;;4.57;67.72;97457.16;5012193;28;20507;-71
2021/04/08 07:11:24;;;;;;;4.15;2.00;;;;;;;4.50;68.09;97453.41;5010794;28;20085;-70
2021/04/08 07:13:49;;;;;;;3.35;1.70;;;;;;;4.58;67.37;97469.41;5013239;28;20036;-73
2021/04/08 07:16:16;;;;;;;2.65;1.63;;;;;;;4.60;67.34;97465.66;5009329;28;20037;-69
2021/04/08 07:18:41;;;;;;;1.98;1.40;;;;;;;4.49;67.39;97457.91;5011467;28;20312;-60
2021/04/08 07:21:07;;;;;;;4.82;2.35;;;;;;;4.62;67.08;97493.84;5012003;28;20466;-66
2021/04/08 07:23:32;;;;;;;3.90;1.27;;;;;;;4.62;67.40;97491.19;5011440;28;20100;-68
2021/04/08 07:26:11;;;;;;;5.70;0.90;;;;;;;4.66;67.49;97498.72;5011209;28;20061;-69
2021/04/08 07:28:38;;;;;;;1.40;0.90;;;;;;;4.63;67.21;97480.44;5012412;28;20069;-67
2021/04/08 07:31:29;;;;;;;8.38;0.93;;;;;;;4.83;67.43;97507.72;5012881;28;20486;-69
2021/04/08 07:33:57;;;;;;;2.25;0.90;;;;;;;4.78;66.65;97493.22;4999655;28;20140;-69
2021/04/08 07:36:37;;;;;;;5.60;1.02;;;;;;;4.99;68.19;97509.75;5012404;28;20038;-71
2021/04/08 07:39:14;;;;;;;3.13;1.10;;;;;;;5.13;66.72;97518.22;5012188;28;20421;-69
2021/04/08 07:41:40;;;;;;;1.20;0.95;;;;;;;5.27;66.15;97524.88;5013468;28;20482;-70
2021/04/08 07:44:07;;;;;;;2.05;0.88;;;;;;;5.49;65.70;97539.53;5013852;28;20064;-65
2021/04/08 07:46:37;;;;;;;1.63;0.90;;;;;;;5.66;64.87;97539.75;5012242;28;20048;-68
2021/04/08 07:49:30;;;;;;;2.13;0.80;;;;;;;5.81;64.49;97554.19;5013029;28;20038;-69
2021/04/08 07:51:57;;;;;;;1.00;0.60;;;;;;;5.98;63.83;97552.53;5013414;28;20332;-71
2021/04/08 07:54:24;;;;;;;3.05;0.65;;;;;;;6.09;63.74;97572.75;5011756;28;20069;-70
2021/04/08 07:56:50;;;;;;;2.28;0.70;;;;;;;6.18;63.01;97560.38;5011851;28;20037;-68
2021/04/08 07:59:19;;;;;;;1.30;0.50;;;;;;;6.18;62.79;97577.16;5005498;28;20034;-69
2021/04/08 08:01:46;;;;;;;2.30;0.63;;;;;;;6.17;62.05;97580.78;5010943;28;20045;-71
2021/04/08 08:04:23;;;;;;;2.72;0.47;;;;;;;6.24;62.47;97590.81;5011471;28;20406;-65
2021/04/08 08:06:49;;;;;;;2.28;0.60;;;;;;;6.32;62.46;97597.03;5011922;28;20037;-69
2021/04/08 08:09:22;;;;;;;2.67;0.63;;;;;;;6.18;61.24;97582.47;5011390;28;20505;-72
2021/04/08 08:11:49;;;;;;;1.45;0.50;;;;;;;6.29;62.24;97613.28;5011615;28;20549;-70
2021/04/08 08:14:16;;;;;;;1.52;0.75;;;;;;;6.21;62.28;97609.72;5011318;28;20099;-70
2021/04/08 08:17:01;;;;;;;2.42;0.50;;;;;;;6.26;62.34;97626.88;5011213;28;20478;-63
2021/04/08 08:19:27;;;;;;;0.70;0.40;;;;;;;6.23;62.09;97642.28;5011311;28;20187;-69
2021/04/08 08:21:53;;;;;;;1.20;0.60;;;;;;;6.25;62.26;97642.97;5011486;28;20092;-69
2021/04/08 08:24:19;;;;;;;1.45;0.50;;;;;;;6.34;61.85;97639.41;5011060;28;20026;-69
2021/04/08 08:26:49;;;;;;;0.95;0.50;;;;;;;6.36;61.22;97650.72;5009738;28;20044;-68
2021/04/08 08:29:17;;;;;;;1.35;0.70;;;;;;;6.38;61.88;97653.22;5011071;28;20073;-69
2021/04/08 08:31:47;;;;;;;1.35;0.63;;;;;;;6.26;61.61;97656.13;5026352;28;20048;-68
2021/04/08 08:34:16;;;;;;;1.65;0.63;;;;;;;6.34;61.22;97676.63;5010763;28;20034;-65
2021/04/08 08:36:44;;;;;;;0.55;0.43;;;;;;;6.36;61.69;97673.81;5010875;28;20042;-67
2021/04/08 08:39:14;;;;;;;0.93;0.45;;;;;;;6.12;61.57;97660.13;5010978;28;20041;-69
2021/04/08 08:41:41;;;;;;;1.13;0.80;;;;;;;6.37;61.64;97702.91;5011320;28;20117;-69
2021/04/08 08:44:08;;;;;;;1.30;0.60;;;;;;;6.37;62.00;97716.19;5011689;28;20038;-68
2021/04/08 08:46:42;;;;;;;1.83;0.60;;;;;;;6.41;61.33;97714.91;5010711;28;20037;-70
2021/04/08 08:49:08;;;;;;;0.60;0.60;;;;;;;6.41;61.16;97722.88;5011233;28;20493;-68
2021/04/08 08:51:36;;;;;;;2.53;1.67;;;;;;;6.43;61.34;97722.75;5009962;28;20069;-66
2021/04/08 08:54:03;;;;;;;0.80;0.60;;;;;;;6.42;61.34;97737.03;5011025;28;20040;-69
2021/04/08 08:56:30;;;;;;;1.85;0.70;;;;;;;6.51;61.12;97756.53;5010329;28;20034;-70
2021/04/08 08:58:57;;;;;;;0.93;0.60;;;;;;;6.54;61.25;97753.59;5010773;28;20049;-71
2021/04/08 09:01:23;;;;;;;1.65;0.52;;;;;;;6.48;60.71;97755.03;4992877;28;20034;-70
2021/04/08 09:03:58;;;;;;;1.23;0.52;;;;;;;6.51;60.34;97762.69;5010882;28;20038;-69
2021/04/08 09:06:24;;;;;;;1.05;0.80;;;;;;;6.47;61.27;97756.84;5010659;28;20025;-68
2021/04/08 09:09:05;;;;;;;0.85;0.70;;;;;;;6.51;60.79;97765.34;5010710;28;20038;-69
2021/04/08 09:11:34;;;;;;;0.82;0.75;;;;;;;6.55;60.63;97781.84;5010366;28;20037;-71
2021/04/08 09:14:00;;;;;;;0.95;0.77;;;;;;;6.63;60.80;97805.03;5010506;28;20113;-71
2021/04/08 09:16:28;;;;;;;1.52;0.68;;;;;;;6.56;60.38;97826.06;5010423;28;20029;-69
2021/04/08 09:19:05;;;;;;;1.80;0.70;;;;;;;6.57;60.42;97822.44;5010231;28;20132;-71
2021/04/08 09:21:43;;;;;;;1.65;0.73;;;;;;;6.51;60.78;97857.56;4994926;28;20032;-71
2021/04/08 09:24:12;;;;;;;2.53;0.63;;;;;;;6.51;60.71;97852.25;5009876;28;20034;-72
2021/04/08 09:26:40;;;;;;;0.93;0.65;;;;;;;6.55;60.77;97851.81;5005385;28;20034;-72
2021/04/08 09:29:08;;;;;;;1.38;0.93;;;;;;;6.54;60.84;97844.81;5006355;28;20048;-71
2021/04/08 09:31:34;;;;;;;2.05;0.63;;;;;;;6.59;60.63;97881.59;5008350;28;20038;-69
2021/04/08 09:34:02;;;;;;;0.80;0.60;;;;;;;6.60;60.99;97889.41;4997746;28;20037;-71
2021/04/08 09:36:35;;;;;;;1.10;0.70;;;;;;;6.54;60.02;97875.91;5008041;28;20517;-72
2021/04/08 09:39:01;;;;;;;1.55;0.90;;;;;;;6.69;59.93;97898.34;5009602;28;20048;-72
2021/04/08 09:41:39;;;;;;;1.95;0.60;;;;;;;6.84;60.72;97908.50;5009648;28;20041;-71
2021/04/08 09:44:04;;;;;;;1.58;0.60;;;;;;;6.87;60.26;97905.56;5013197;28;20450;-71
2021/04/08 09:46:39;;;;;;;0.98;0.77;;;;;;;6.92;60.06;97939.72;5016185;28;20029;-71
2021/04/08 09:49:04;;;;;;;0.73;0.52;;;;;;;6.72;59.85;97931.81;5016912;28;20045;-70
2021/04/08 09:51:44;;;;;;;1.08;0.68;;;;;;;6.73;60.02;97931.63;5016012;28;20038;-71
2021/04/08 09:54:11;;;;;;;1.15;0.70;;;;;;;6.85;60.09;97952.75;5014874;28;20124;-73
2021/04/08 09:56:57;;;;;;;1.48;0.77;;;;;;;6.87;59.25;97966.75;5014572;28;20072;-72
2021/04/08 09:59:24;;;;;;;2.22;0.77;;;;;;;6.76;59.75;97983.72;5014995;28;20048;-69
2021/04/08 10:01:51;;;;;;;1.10;0.38;;;;;;;6.81;59.92;97985.94;5014894;28;20506;-70
2021/04/08 10:04:25;;;;;;;2.63;1.00;;;;;;;6.75;59.09;97987.34;5016006;28;20148;-71
2021/04/08 10:07:03;;;;;;;1.45;0.68;;;;;;;6.70;59.53;98013.56;5016391;28;20038;-69
2021/04/08 10:09:28;;;;;;;2.53;0.85;;;;;;;6.49;59.56;98003.09;5015829;28;20033;-73
2021/04/08 10:11:54;;;;;;;1.40;0.63;;;;;;;6.56;60.08;98026.31;5015653;28;20367;-72
2021/04/08 10:14:25;;;;;;;1.70;0.65;;;;;;;6.56;59.64;98033.47;5015903;28;20038;-71
2021/04/08 10:17:03;;;;;;;1.15;0.65;;;;;;;6.45;59.49;98031.78;5015046;28;20038;-68
2021/04/08 10:19:35;;;;;;;1.23;0.70;;;;;;;6.34;59.73;98046.06;5015343;28;20124;-74
2021/04/08 10:22:01;;;;;;;1.83;1.25;;;;;;;6.40;60.29;98060.63;5016161;28;20033;-73
2021/04/08 10:24:33;;;;;;;1.27;0.70;;;;;;;6.47;60.92;98065.22;5015798;28;20076;-70
2021/04/08 10:27:00;;;;;;;2.42;0.98;;;;;;;6.53;60.05;98065.66;5015458;28;20057;-73
2021/04/08 10:29:33;;;;;;;1.45;1.00;;;;;;;6.33;60.19;98047.06;5031236;28;20042;-74
2021/04/08 10:31:59;;;;;;;1.30;0.82;;;;;;;6.58;59.74;98092.66;5015228;28;20044;-74
2021/04/08 10:34:37;;;;;;;0.90;0.70;;;;;;;6.35;59.98;98050.41;5015640;28;20046;-77
2021/04/08 10:37:04;;;;;;;0.93;0.88;;;;;;;6.69;60.14;98116.41;5014510;28;20532;-75
2021/04/08 10:39:38;;;;;;;1.85;0.93;;;;;;;6.77;60.48;98107.75;5015323;28;20456;-72
2021/04/08 10:42:09;;;;;;;1.63;1.00;;;;;;;6.83;60.36;98112.47;5030745;28;20046;-74
2021/04/08 10:44:37;;;;;;;1.73;1.23;;;;;;;6.98;60.29;98120.03;5015533;28;20061;-70
2021/04/08 10:47:14;;;;;;;1.70;1.30;;;;;;;6.94;60.24;98151.41;5015417;28;20030;-71
2021/04/08 10:49:55;;;;;;;2.67;1.40;;;;;;;6.98;59.57;98158.09;5000659;28;20033;-76
2021/04/08 10:52:27;;;;;;;1.42;1.02;;;;;;;6.91;59.93;98177.47;5014346;28;20041;-73
2021/04/08 10:55:14;;;;;;;2.08;1.13;;;;;;;6.92;59.57;98179.97;5013148;28;20051;-76
2021/04/08 10:57:41;;;;;;;4.85;1.35;;;;;;;6.89;59.79;98186.44;5012277;28;20069;-71
2021/04/08 11:00:09;;;;;;;3.20;1.58;;;;;;;6.79;59.41;98179.44;5012422;28;20057;-72
2021/04/08 11:02:40;;;;;;;2.05;1.30;;;;;;;6.64;60.13;98161.22;5011117;28;20042;-73
2021/04/08 11:05:14;;;;;;;2.30;1.17;;;;;;;7.28;59.21;98228.13;5012809;28;20030;-67
2021/04/08 11:07:41;;;;;;;4.45;1.50;;;;;;;7.36;58.63;98223.91;5009929;28;20171;-65
2021/04/08 11:10:10;;;;;;;4.07;1.23;;;;;;;7.60;57.53;98250.06;5000018;28;20064;-74
2021/04/08 11:12:37;;;;;;;5.97;1.70;;;;;;;7.55;56.95;98239.84;5012426;28;20485;-73
2021/04/08 11:15:05;;;;;;;4.35;1.63;;;;;;;7.63;56.96;98267.59;5012698;28;20030;-73
2021/04/08 11:17:33;;;;;;;3.53;1.50;;;;;;;7.83;56.20;98263.88;5011966;28;20030;-69
2021/04/08 11:19:59;;;;;;;3.50;1.48;;;;;;;7.75;55.62;98261.94;5011440;28;20451;-67
2021/04/08 11:22:29;;;;;;;4.38;1.70;;;;;;;7.79;55.91;98288.28;5011910;28;20042;-68
2021/04/08 11:24:56;;;;;;;2.58;1.60;;;;;;;7.85;55.76;98293.88;5011956;28;20040;-73
2021/04/08 11:27:36;;;;;;;3.20;1.50;;;;;;;7.51;54.71;98219.81;5011888;28;20060;-70
2021/04/08 11:30:07;;;;;;;4.63;1.73;;;;;;;7.87;55.19;98275.09;5010341;28;20044;-70
2021/04/08 11:32:50;;;;;;;3.05;1.55;;;;;;;8.21;54.38;98309.22;5027122;28;20042;-71
2021/04/08 11:35:32;;;;;;;4.05;1.50;;;;;;;8.23;54.30;98290.41;5009928;28;20121;-70
2021/04/08 11:38:09;;;;;;;6.10;2.03;;;;;;;8.53;54.08;98329.31;5011174;28;20502;-69
2021/04/08 11:40:35;;;;;;;5.85;1.83;;;;;;;8.20;54.00;98248.88;5011011;28;20355;-67